Time;durP1;ratioP1;P1;durP2;ratioP2;P2;SDS_P1;SDS_P2;PMS_P1;PMS_P2;Temp;Humidity;BMP_temperature;BMP_pressure;BME280_temperature;BME280_humidity;BME280_pressure;Samples;Min_cycle;Max_cycle;Signal;HPM_P1;HPM_P2
2023/04/19 05:30:57;;;;;;;15.27;7.90;;;9.50;99.90;;;;;;4969785;23;20242;-68
2023/04/19 05:33:23;;;;;;;14.20;7.63;;;9.50;99.90;;;;;;4992963;28;20207;-69
2023/04/19 05:35:50;;;;;;;14.13;6.87;;;9.70;99.90;;;;;;4993183;28;20658;-69
2023/04/19 05:38:17;;;;;;;16.00;7.40;;;9.80;99.90;;;;;;4992909;28;20230;-69
2023/04/19 05:40:44;;;;;;;14.30;7.00;;;9.80;99.90;;;;;;4993152;28;20206;-70
2023/04/19 05:43:11;;;;;;;19.70;7.20;;;10.10;99.90;;;;;;4993270;28;20234;-72
2023/04/19 05:45:38;;;;;;;12.07;7.17;;;10.50;99.90;;;;;;4988644;28;20214;-69
2023/04/19 05:48:06;;;;;;;13.73;7.87;;;10.90;99.90;;;;;;4991853;28;20238;-70
2023/04/19 05:50:33;;;;;;;11.27;6.53;;;11.20;99.90;;;;;;4992239;28;20221;-70
2023/04/19 05:53:00;;;;;;;11.83;6.70;;;11.20;99.90;;;;;;4991905;28;20207;-70
2023/04/19 05:55:27;;;;;;;13.03;6.40;;;11.10;99.90;;;;;;4991896;28;20202;-70
2023/04/19 05:57:53;;;;;;;12.03;7.20;;;11.10;99.90;;;;;;4991376;28;20229;-70
2023/04/19 06:00:20;;;;;;;11.17;6.47;;;11.10;99.90;;;;;;4994072;28;20210;-70
2023/04/19 06:02:47;;;;;;;12.00;6.93;;;11.20;99.90;;;;;;4995513;28;20209;-70
2023/04/19 06:05:15;;;;;;;13.93;7.33;;;11.40;99.90;;;;;;4995945;28;20207;-70
2023/04/19 06:07:42;;;;;;;11.57;6.57;;;11.70;99.90;;;;;;4996461;28;20241;-70
2023/04/19 06:10:10;;;;;;;11.23;6.47;;;11.60;99.90;;;;;;4996124;28;20229;-70
2023/04/19 06:12:37;;;;;;;10.17;6.00;;;11.50;99.90;;;;;;4996342;28;20217;-70
2023/04/19 06:15:04;;;;;;;10.83;6.07;;;11.40;99.90;;;;;;4996219;28;20210;-70
2023/04/19 06:17:31;;;;;;;11.97;6.57;;;11.20;99.90;;;;;;4995626;28;20233;-70
2023/04/19 06:19:58;;;;;;;14.67;6.90;;;11.20;99.90;;;;;;4995934;28;20246;-71
2023/04/19 06:22:26;;;;;;;13.67;6.33;;;11.10;99.90;;;;;;4996159;28;20206;-71
2023/04/19 06:24:53;;;;;;;10.33;6.10;;;11.00;99.90;;;;;;4996359;28;20210;-71
2023/04/19 06:27:20;;;;;;;13.43;6.13;;;11.10;99.90;;;;;;4995819;28;20738;-70
2023/04/19 06:29:46;;;;;;;11.80;6.90;;;11.20;99.90;;;;;;4995820;28;20293;-72
2023/04/19 06:32:13;;;;;;;11.37;6.57;;;11.30;99.90;;;;;;4995626;28;20206;-72
2023/04/19 06:34:40;;;;;;;13.13;6.07;;;11.50;99.90;;;;;;4995733;28;20210;-72
2023/04/19 06:37:07;;;;;;;10.43;6.03;;;11.60;99.90;;;;;;4995858;28;20234;-71
2023/04/19 06:39:35;;;;;;;10.10;6.00;;;11.90;99.90;;;;;;4992490;28;20202;-68
2023/04/19 06:42:02;;;;;;;11.20;6.47;;;12.10;99.90;;;;;;4994354;28;20306;-69
2023/04/19 06:44:29;;;;;;;11.47;5.97;;;12.50;99.90;;;;;;4994153;28;20202;-69
2023/04/19 06:46:56;;;;;;;11.17;5.60;;;12.90;99.90;;;;;;4994215;28;20252;-71
2023/04/19 06:49:23;;;;;;;10.30;5.47;;;13.20;99.90;;;;;;4990086;28;21039;-70
2023/04/19 06:51:50;;;;;;;10.10;5.90;;;13.80;99.90;;;;;;4994359;28;20693;-69
2023/04/19 06:54:17;;;;;;;11.53;5.80;;;14.30;99.90;;;;;;4994105;28;20289;-70
2023/04/19 06:56:47;;;;;;;9.43;5.43;;;14.70;99.90;;;;;;4994094;28;20517;-69
2023/04/19 06:59:15;;;;;;;11.70;5.50;;;15.20;99.90;;;;;;4994010;28;20229;-68
2023/04/19 07:01:42;;;;;;;8.17;5.17;;;15.40;99.90;;;;;;4994035;28;20206;-69
2023/04/19 07:04:09;;;;;;;10.27;5.20;;;15.20;99.90;;;;;;4994382;28;20578;-70
2023/04/19 07:06:37;;;;;;;8.93;5.07;;;15.50;99.90;;;;;;4994059;28;20730;-69
2023/04/19 07:09:05;;;;;;;7.63;5.37;;;15.90;99.90;;;;;;4993413;28;20237;-69
2023/04/19 07:11:32;;;;;;;9.77;5.67;;;16.00;99.90;;;;;;4993548;28;20211;-70
2023/04/19 07:14:00;;;;;;;10.47;5.07;;;15.70;99.90;;;;;;4988914;28;20210;-70
2023/04/19 07:16:27;;;;;;;9.13;5.47;;;15.00;99.90;;;;;;4993592;28;20206;-72
2023/04/19 07:18:54;;;;;;;7.30;4.80;;;14.40;99.90;;;;;;4993300;28;20663;-73
2023/04/19 07:21:23;;;;;;;8.67;5.00;;;14.10;99.90;;;;;;4993532;28;20632;-73
2023/04/19 07:23:50;;;;;;;9.13;5.30;;;14.50;99.90;;;;;;4993015;28;20626;-71
2023/04/19 07:26:17;;;;;;;10.67;4.60;;;14.50;99.90;;;;;;4993498;28;20206;-71
2023/04/19 07:28:44;;;;;;;8.83;5.30;;;14.10;99.90;;;;;;4993056;28;20242;-72
2023/04/19 07:31:16;;;;;;;6.97;4.87;;;14.10;99.90;;;;;;4993224;28;20214;-71
2023/04/19 07:33:43;;;;;;;9.57;5.77;;;14.80;99.90;;;;;;4993491;28;20206;-72
2023/04/19 07:36:10;;;;;;;8.20;4.73;;;15.50;99.90;;;;;;4993253;28;20682;-71
2023/04/19 07:38:37;;;;;;;7.73;4.77;;;16.10;99.90;;;;;;4993138;28;20230;-73
2023/04/19 07:41:04;;;;;;;7.67;4.90;;;15.90;99.90;;;;;;4993150;28;20571;-71
2023/04/19 07:43:31;;;;;;;9.23;5.13;;;15.80;99.90;;;;;;4993256;28;20265;-72
2023/04/19 07:45:58;;;;;;;7.47;4.10;;;15.40;99.90;;;;;;4993144;28;20610;-73
2023/04/19 07:48:26;;;;;;;8.17;4.90;;;15.10;99.90;;;;;;4993343;28;20230;-72
2023/04/19 07:50:53;;;;;;;8.67;4.80;;;14.60;99.90;;;;;;4992957;28;20211;-72
2023/04/19 07:53:20;;;;;;;6.97;4.40;;;14.80;99.90;;;;;;4993086;28;20242;-72
2023/04/19 07:55:46;;;;;;;8.77;4.60;;;15.40;99.90;;;;;;4994559;28;20655;-71
2023/04/19 07:58:13;;;;;;;8.80;4.93;;;15.80;99.90;;;;;;4993437;28;20249;-72
2023/04/19 08:00:40;;;;;;;8.13;5.17;;;16.40;99.90;;;;;;4992915;28;20206;-70
2023/04/19 08:03:07;;;;;;;8.20;4.38;;;16.50;99.90;;;;;;4992450;28;20607;-70
2023/04/19 08:05:35;;;;;;;7.78;4.78;;;16.50;99.90;;;;;;4992343;28;20210;-72
2023/04/19 08:08:02;;;;;;;8.52;4.20;;;16.80;99.90;;;;;;4992219;28;20230;-72
2023/04/19 08:10:31;;;;;;;9.40;4.45;;;16.60;99.90;;;;;;4992180;28;20325;-72
2023/04/19 08:12:57;;;;;;;7.60;4.38;;;16.50;99.90;;;;;;4992415;28;20618;-71
2023/04/19 08:15:24;;;;;;;5.90;4.03;;;16.30;99.90;;;;;;4992777;28;20214;-71
2023/04/19 08:17:51;;;;;;;6.80;4.50;;;16.50;99.90;;;;;;4992476;28;20236;-71
2023/04/19 08:20:18;;;;;;;6.25;4.28;;;16.50;99.90;;;;;;4988296;28;20214;-70
2023/04/19 08:22:46;;;;;;;7.43;4.67;;;16.70;99.90;;;;;;4990914;28;20293;-72
2023/04/19 08:25:13;;;;;;;7.73;4.10;;;16.40;99.90;;;;;;4991936;28;20725;-70
2023/04/19 08:27:40;;;;;;;7.80;4.57;;;16.00;99.90;;;;;;4992654;28;20232;-71
2023/04/19 08:30:08;;;;;;;10.53;4.73;;;15.90;99.90;;;;;;4987695;28;20241;-70
2023/04/19 08:32:35;;;;;;;9.70;5.03;;;16.10;99.90;;;;;;4976648;28;20214;-71
2023/04/19 08:35:02;;;;;;;8.00;5.10;;;16.60;99.90;;;;;;4992391;28;20300;-72
2023/04/19 08:37:29;;;;;;;7.03;4.27;;;16.30;99.90;;;;;;4991883;28;20226;-70
2023/04/19 08:39:57;;;;;;;7.77;4.90;;;16.00;99.90;;;;;;4990606;28;20619;-72
2023/04/19 08:42:24;;;;;;;7.10;4.30;;;16.40;99.90;;;;;;4991991;28;20207;-73
2023/04/19 08:44:52;;;;;;;6.30;4.07;;;16.60;99.90;;;;;;4990515;28;20202;-71
2023/04/19 08:47:20;;;;;;;11.27;4.40;;;16.60;99.90;;;;;;4991781;28;20313;-72
2023/04/19 08:49:48;;;;;;;5.78;4.05;;;16.80;99.90;;;;;;4992113;28;20288;-71
2023/04/19 08:52:15;;;;;;;7.90;4.75;;;17.00;99.90;;;;;;4992184;28;20218;-72
2023/04/19 08:54:44;;;;;;;7.97;3.97;;;17.50;99.90;;;;;;4991711;28;20237;-71
2023/04/19 08:57:12;;;;;;;6.78;4.55;;;17.80;99.90;;;;;;4992116;28;20233;-71
2023/04/19 08:59:39;;;;;;;9.25;4.60;;;17.90;99.90;;;;;;4991919;28;20214;-69
2023/04/19 09:02:06;;;;;;;7.63;4.65;;;18.00;99.90;;;;;;4991982;28;20663;-72
2023/04/19 09:04:33;;;;;;;7.22;4.60;;;17.50;99.90;;;;;;4990939;28;20206;-71
2023/04/19 09:07:00;;;;;;;6.68;4.03;;;17.50;99.90;;;;;;4991566;28;20225;-70
2023/04/19 09:09:29;;;;;;;6.97;4.30;;;17.30;99.90;;;;;;4991657;28;20309;-71
2023/04/19 09:11:57;;;;;;;6.45;4.30;;;17.40;99.90;;;;;;4992942;28;20294;-73
2023/04/19 09:14:26;;;;;;;6.70;4.30;;;17.30;99.90;;;;;;4993232;28;20217;-73
2023/04/19 09:16:53;;;;;;;7.80;4.32;;;17.00;99.90;;;;;;4993212;28;20252;-73
2023/04/19 09:19:20;;;;;;;7.50;4.82;;;16.80;99.90;;;;;;4993681;28;20210;-73
2023/04/19 09:21:50;;;;;;;6.25;3.90;;;16.90;99.90;;;;;;4993457;28;20210;-73
2023/04/19 09:24:17;;;;;;;6.32;4.15;;;16.90;99.90;;;;;;4993498;28;20318;-73
2023/04/19 09:26:54;;;;;;;8.85;4.38;;;16.70;99.90;;;;;;4993258;28;20202;-72
2023/04/19 09:29:21;;;;;;;6.80;4.20;;;16.40;99.90;;;;;;4992979;28;20237;-73
2023/04/19 09:31:58;;;;;;;7.03;4.13;;;16.30;99.90;;;;;;4993453;28;20210;-71
2023/04/19 09:34:27;;;;;;;6.30;4.00;;;16.60;99.90;;;;;;4995246;28;20365;-73
2023/04/19 09:36:55;;;;;;;5.88;3.97;;;17.00;99.90;;;;;;4996766;28;20317;-72
2023/04/19 09:39:39;;;;;;;8.10;4.00;;;17.00;99.90;;;;;;4996969;28;20678;-71
2023/04/19 09:42:07;;;;;;;6.03;3.93;;;16.70;99.90;;;;;;4997086;28;20214;-73
2023/04/19 09:44:35;;;;;;;5.90;3.83;;;16.80;99.90;;;;;;4997113;28;20617;-72
2023/04/19 09:47:03;;;;;;;5.93;3.72;;;16.90;99.90;;;;;;4997029;28;20226;-73
2023/04/19 09:49:29;;;;;;;6.00;3.63;;;17.00;99.90;;;;;;4997023;28;20702;-72
2023/04/19 09:51:57;;;;;;;5.75;3.92;;;16.70;99.90;;;;;;4997011;28;20206;-73
2023/04/19 09:54:26;;;;;;;4.93;3.70;;;16.90;99.90;;;;;;4996807;28;20206;-73
2023/04/19 09:56:53;;;;;;;6.23;3.93;;;16.90;99.90;;;;;;4997004;28;20664;-72
2023/04/19 09:59:20;;;;;;;5.83;3.30;;;16.90;99.90;;;;;;4996746;28;20202;-74
2023/04/19 10:01:50;;;;;;;5.90;3.90;;;16.50;99.90;;;;;;4996806;28;20211;-72
2023/04/19 10:04:21;;;;;;;6.83;3.70;;;16.20;99.90;;;;;;4997045;28;20213;-72
2023/04/19 10:06:49;;;;;;;6.47;3.97;;;16.20;99.90;;;;;;4996556;28;20222;-72
2023/04/19 10:09:17;;;;;;;5.03;3.70;;;16.40;99.90;;;;;;4996553;28;20202;-73
2023/04/19 10:11:50;;;;;;;4.47;3.38;;;16.40;99.90;;;;;;4996531;28;20673;-72
2023/04/19 10:14:22;;;;;;;5.23;3.60;;;16.40;99.90;;;;;;4996534;28;20207;-73
2023/04/19 10:16:49;;;;;;;4.93;3.37;;;16.40;99.90;;;;;;4996455;28;20232;-73
2023/04/19 10:19:18;;;;;;;4.63;3.60;;;16.40;99.90;;;;;;4996089;28;20206;-71
2023/04/19 10:21:47;;;;;;;5.63;3.40;;;16.50;99.90;;;;;;4996031;28;20206;-73
2023/04/19 10:24:17;;;;;;;5.13;3.10;;;16.50;99.90;;;;;;4996185;28;20670;-72
2023/04/19 10:27:07;;;;;;;4.87;3.20;;;16.60;99.90;;;;;;4996061;28;20217;-73
2023/04/19 10:29:55;;;;;;;6.13;3.40;;;16.50;99.90;;;;;;4995754;28;20231;-73
2023/04/19 10:32:23;;;;;;;4.33;2.90;;;16.70;99.90;;;;;;4996090;28;20203;-72
2023/04/19 10:34:53;;;;;;;4.43;2.73;;;17.00;99.90;;;;;;4996001;28;20207;-73
2023/04/19 10:37:22;;;;;;;4.77;3.07;;;17.20;99.90;;;;;;4996094;28;20230;-73
2023/04/19 10:39:49;;;;;;;7.63;3.45;;;17.50;99.90;;;;;;4995969;28;20733;-73
2023/04/19 10:42:16;;;;;;;4.67;3.13;;;17.40;99.90;;;;;;4995697;28;20214;-71
2023/04/19 10:45:21;;;;;;;4.23;2.97;;;17.10;99.90;;;;;;4995720;28;20309;-71
2023/04/19 10:47:51;;;;;;;5.00;2.80;;;17.30;99.90;;;;;;4995156;28;20626;-72
2023/04/19 10:50:20;;;;;;;3.22;2.40;;;17.40;99.90;;;;;;4995334;28;20568;-71
2023/04/19 10:52:46;;;;;;;4.32;2.53;;;17.60;99.90;;;;;;4995798;28;20273;-71
2023/04/19 10:55:18;;;;;;;3.50;2.33;;;17.70;99.90;;;;;;4995533;28;20202;-69
2023/04/19 10:58:02;;;;;;;4.55;2.60;;;17.60;99.90;;;;;;4995469;28;20222;-71
2023/04/19 11:00:31;;;;;;;5.17;3.17;;;16.90;99.90;;;;;;4994271;28;20210;-71
2023/04/19 11:02:58;;;;;;;3.63;2.80;;;16.90;99.90;;;;;;4995263;28;20210;-72
2023/04/19 11:05:26;;;;;;;4.93;3.33;;;17.00;99.90;;;;;;4995034;28;20308;-71
2023/04/19 11:07:53;;;;;;;5.30;2.80;;;16.70;99.90;;;;;;4995190;28;20237;-72
2023/04/19 11:10:29;;;;;;;8.65;2.97;;;16.40;99.90;;;;;;4995240;28;20262;-70
2023/04/19 11:12:56;;;;;;;5.17;2.60;;;16.90;99.90;;;;;;4995416;28;20206;-71
2023/04/19 11:15:23;;;;;;;5.55;2.58;;;17.10;99.90;;;;;;4995138;28;20563;-71
2023/04/19 11:17:51;;;;;;;4.60;2.93;;;16.80;99.90;;;;;;4994933;28;20230;-71
2023/04/19 11:20:19;;;;;;;3.73;2.80;;;16.70;99.90;;;;;;4995210;28;20214;-71
2023/04/19 11:22:47;;;;;;;5.40;2.70;;;16.80;99.90;;;;;;4995188;28;20206;-72
2023/04/19 11:25:16;;;;;;;4.63;2.97;;;17.00;99.90;;;;;;4994936;28;20202;-71
2023/04/19 11:27:44;;;;;;;3.93;2.90;;;16.80;99.90;;;;;;5010883;23;20762;-72
2023/04/19 11:30:13;;;;;;;5.78;2.80;;;16.80;99.90;;;;;;4994660;28;20234;-73
2023/04/19 11:32:47;;;;;;;3.50;2.87;;;17.00;99.90;;;;;;4994610;28;20310;-72
2023/04/19 11:35:14;;;;;;;3.45;2.67;;;17.50;99.90;;;;;;4994717;28;20209;-72
2023/04/19 11:37:41;;;;;;;4.47;3.00;;;17.70;99.90;;;;;;4994742;28;20237;-72
2023/04/19 11:40:14;;;;;;;6.95;3.65;;;17.80;99.90;;;;;;4994752;28;20671;-73
2023/04/19 11:42:41;;;;;;;3.67;2.72;;;17.50;99.90;;;;;;4994745;28;20233;-72
2023/04/19 11:45:10;;;;;;;5.20;3.13;;;17.10;99.90;;;;;;4994952;28;20234;-73
2023/04/19 11:47:47;;;;;;;7.27;3.50;;;16.90;99.90;;;;;;4994597;28;20230;-73
2023/04/19 11:50:34;;;;;;;7.63;3.10;;;16.50;99.90;;;;;;4995080;28;20320;-72
2023/04/19 11:53:11;;;;;;;5.83;3.33;;;16.20;99.90;;;;;;4994574;28;20220;-72
2023/04/19 11:55:41;;;;;;;7.37;3.70;;;16.20;99.90;;;;;;4994877;28;20555;-73
2023/04/19 11:58:09;;;;;;;5.17;3.10;;;16.40;99.90;;;;;;4993774;28;20223;-74
2023/04/19 12:00:36;;;;;;;6.10;3.33;;;16.60;99.90;;;;;;4994502;28;20221;-74
2023/04/19 12:03:04;;;;;;;4.73;3.33;;;16.70;99.90;;;;;;4994476;28;20559;-75
2023/04/19 12:05:31;;;;;;;5.83;3.80;;;16.70;99.90;;;;;;4994455;28;20237;-72
2023/04/19 12:08:03;;;;;;;5.67;2.87;;;16.80;99.90;;;;;;4994643;28;20556;-73
2023/04/19 12:10:30;;;;;;;5.33;3.43;;;16.80;99.90;;;;;;4994292;28;20237;-75
2023/04/19 12:12:58;;;;;;;4.80;2.87;;;16.80;99.90;;;;;;4994485;28;20217;-73
2023/04/19 12:15:41;;;;;;;5.93;3.20;;;16.70;99.90;;;;;;4994488;28;20327;-74
2023/04/19 12:18:08;;;;;;;5.87;2.97;;;16.60;99.90;;;;;;4994137;28;20226;-73
2023/04/19 12:20:36;;;;;;;5.77;2.90;;;16.50;99.90;;;;;;4994516;28;20209;-73
2023/04/19 12:23:04;;;;;;;4.83;2.90;;;16.40;99.90;;;;;;4994008;28;20209;-73
2023/04/19 12:25:32;;;;;;;5.97;2.90;;;16.50;99.90;;;;;;4993991;28;20232;-73
2023/04/19 12:28:01;;;;;;;3.60;2.63;;;16.50;99.70;;;;;;4993893;28;20235;-73
2023/04/19 12:30:27;;;;;;;5.17;2.80;;;16.50;99.90;;;;;;4993831;28;20238;-72
2023/04/19 12:32:55;;;;;;;4.27;2.40;;;16.70;99.40;;;;;;4993846;28;20206;-73
2023/04/19 12:35:22;;;;;;;5.13;2.43;;;16.90;98.70;;;;;;4993626;28;20737;-73
2023/04/19 12:37:49;;;;;;;3.77;2.50;;;16.80;97.70;;;;;;4993753;28;20237;-73
2023/04/19 12:40:16;;;;;;;3.73;2.70;;;16.80;97.80;;;;;;4993578;28;20210;-72
2023/04/19 12:42:42;;;;;;;3.63;2.33;;;16.60;98.00;;;;;;4993636;28;20210;-72
2023/04/19 12:45:12;;;;;;;3.97;2.70;;;16.70;98.40;;;;;;4993600;28;20214;-71
2023/04/19 12:47:39;;;;;;;4.00;2.77;;;16.80;97.40;;;;;;4993656;28;20237;-73
2023/04/19 12:50:07;;;;;;;3.67;2.53;;;16.90;96.60;;;;;;4993601;28;20560;-73
2023/04/19 12:52:34;;;;;;;3.80;2.30;;;16.60;97.20;;;;;;4993708;28;20210;-72
2023/04/19 12:55:01;;;;;;;2.90;2.00;;;16.50;97.10;;;;;;4993790;28;20242;-73
2023/04/19 12:57:27;;;;;;;4.20;2.10;;;16.60;97.80;;;;;;4993575;28;20237;-73
2023/04/19 12:59:54;;;;;;;3.70;2.10;;;16.70;96.40;;;;;;4993338;28;20206;-73
2023/04/19 13:02:23;;;;;;;5.10;2.63;;;16.70;96.40;;;;;;4993544;28;20337;-73
2023/04/19 13:04:49;;;;;;;3.57;2.13;;;16.50;96.40;;;;;;4993570;28;20213;-72
2023/04/19 13:07:16;;;;;;;2.20;1.80;;;16.60;96.60;;;;;;4993529;28;20726;-71
2023/04/19 13:09:43;;;;;;;3.30;1.90;;;16.60;95.80;;;;;;4996439;28;20297;-74
2023/04/19 13:12:11;;;;;;;2.77;2.00;;;16.60;96.20;;;;;;4997439;28;20241;-71
2023/04/19 13:14:37;;;;;;;3.87;2.20;;;16.60;95.80;;;;;;4997369;28;20663;-71
2023/04/19 13:17:04;;;;;;;3.20;2.23;;;16.60;96.40;;;;;;4997392;28;20231;-74
2023/04/19 13:19:32;;;;;;;3.07;2.03;;;16.60;95.40;;;;;;4997527;28;20212;-74
2023/04/19 13:21:59;;;;;;;3.47;2.00;;;16.60;94.80;;;;;;4997552;28;20206;-73
2023/04/19 13:24:26;;;;;;;3.00;2.00;;;16.60;95.20;;;;;;4997404;28;20214;-71
2023/04/19 13:26:53;;;;;;;2.37;1.60;;;16.50;94.30;;;;;;4997295;28;20226;-73
2023/04/19 13:29:19;;;;;;;3.67;2.07;;;16.60;94.40;;;;;;4996979;28;20213;-74
2023/04/19 13:31:48;;;;;;;2.77;1.80;;;16.70;93.60;;;;;;4997093;28;20259;-74
2023/04/19 13:34:15;;;;;;;4.27;2.03;;;16.70;93.10;;;;;;4997277;28;20264;-74
2023/04/19 13:36:43;;;;;;;4.00;1.87;;;16.50;93.20;;;;;;4997063;28;20228;-74
2023/04/19 13:39:09;;;;;;;4.80;2.13;;;16.50;93.70;;;;;;4997181;28;20686;-74
2023/04/19 13:41:36;;;;;;;2.77;2.10;;;16.30;94.30;;;;;;4996828;28;20305;-76
2023/04/19 13:44:03;;;;;;;4.13;2.10;;;16.30;93.50;;;;;;4997094;28;20210;-74
2023/04/19 13:46:30;;;;;;;3.33;1.80;;;16.20;93.10;;;;;;4997019;28;20206;-73
2023/04/19 13:48:57;;;;;;;3.67;2.20;;;16.30;93.70;;;;;;4996769;28;20225;-73
2023/04/19 13:51:23;;;;;;;4.37;2.03;;;16.20;91.20;;;;;;4996674;28;20230;-74
2023/04/19 13:53:52;;;;;;;2.97;2.00;;;16.30;90.70;;;;;;4996845;28;20563;-73
2023/04/19 13:56:18;;;;;;;6.57;1.77;;;16.30;91.00;;;;;;4996643;28;20210;-74
2023/04/19 13:58:45;;;;;;;3.70;1.70;;;16.20;91.00;;;;;;4996819;28;20227;-74
2023/04/19 14:01:12;;;;;;;2.10;1.50;;;16.00;91.00;;;;;;4996486;28;20690;-74
2023/04/19 14:03:39;;;;;;;1.50;1.10;;;15.80;90.40;;;;;;4996702;28;20207;-73
2023/04/19 14:06:06;;;;;;;1.93;1.40;;;16.00;90.50;;;;;;4996723;28;20217;-73
2023/04/19 14:08:33;;;;;;;2.07;1.00;;;16.00;91.40;;;;;;4996396;28;20362;-73
2023/04/19 14:11:01;;;;;;;5.63;1.00;;;16.20;89.30;;;;;;4996241;28;20234;-74
2023/04/19 14:13:28;;;;;;;4.00;1.10;;;16.20;88.90;;;;;;4996349;28;20210;-75
2023/04/19 14:15:55;;;;;;;3.40;1.10;;;16.10;88.10;;;;;;4996445;28;20298;-75
2023/04/19 14:18:22;;;;;;;2.27;1.10;;;16.10;88.40;;;;;;4996365;28;20249;-74
2023/04/19 14:20:48;;;;;;;2.80;0.90;;;16.00;89.30;;;;;;4995372;28;20217;-74
2023/04/19 14:23:15;;;;;;;2.43;1.50;;;15.80;89.30;;;;;;4996331;28;20693;-74
2023/04/19 14:25:42;;;;;;;3.07;1.00;;;15.80;89.20;;;;;;4996553;28;20218;-74
2023/04/19 14:28:11;;;;;;;2.27;1.13;;;15.90;89.30;;;;;;4996141;28;20241;-74
2023/04/19 14:30:38;;;;;;;2.03;1.30;;;15.70;88.00;;;;;;4995964;28;20270;-74
2023/04/19 14:33:05;;;;;;;2.10;1.10;;;15.60;88.70;;;;;;4995917;28;20209;-74
2023/04/19 14:35:31;;;;;;;3.83;1.00;;;15.70;88.30;;;;;;4996159;28;20218;-74
2023/04/19 14:37:58;;;;;;;2.93;0.90;;;15.90;86.50;;;;;;4995878;28;20226;-73
2023/04/19 14:40:25;;;;;;;1.43;0.90;;;15.90;87.70;;;;;;4995927;28;20798;-74
2023/04/19 14:42:53;;;;;;;1.30;1.00;;;15.90;89.30;;;;;;4996152;28;20218;-74
2023/04/19 14:45:21;;;;;;;1.70;0.93;;;15.90;89.30;;;;;;4995853;28;20257;-74
2023/04/19 14:47:47;;;;;;;1.83;1.20;;;15.90;88.40;;;;;;4995668;28;20261;-74
2023/04/19 14:50:14;;;;;;;4.30;1.20;;;16.10;87.20;;;;;;4995771;28;20210;-74
2023/04/19 14:52:41;;;;;;;1.73;1.00;;;16.00;87.90;;;;;;4995755;28;20714;-74
2023/04/19 14:55:09;;;;;;;2.57;1.53;;;16.10;89.30;;;;;;4995894;28;20210;-74
2023/04/19 14:57:36;;;;;;;2.10;1.17;;;16.10;88.40;;;;;;4995755;28;20222;-74
2023/04/19 15:00:03;;;;;;;5.03;1.17;;;16.10;89.60;;;;;;4995426;28;20671;-74
2023/04/19 15:02:32;;;;;;;2.07;1.40;;;16.00;89.50;;;;;;4995366;28;20211;-74
2023/04/19 15:04:58;;;;;;;2.03;1.17;;;16.00;90.00;;;;;;4995365;28;20206;-74
2023/04/19 15:07:27;;;;;;;1.50;1.10;;;16.00;90.50;;;;;;4995170;28;20245;-74
2023/04/19 15:09:54;;;;;;;2.67;1.23;;;16.00;90.60;;;;;;4995448;28;20207;-73
2023/04/19 15:12:20;;;;;;;1.50;1.10;;;15.90;88.50;;;;;;4995214;28;20809;-74
2023/04/19 15:14:47;;;;;;;2.07;1.20;;;15.90;90.10;;;;;;4995450;28;20216;-73
2023/04/19 15:17:15;;;;;;;2.77;1.03;;;16.00;90.20;;;;;;4994984;28;20394;-73
2023/04/19 15:19:45;;;;;;;1.33;0.80;;;16.00;88.50;;;;;;4995326;28;20206;-74
2023/04/19 15:22:12;;;;;;;1.23;1.00;;;15.90;88.40;;;;;;4995281;28;20655;-73
2023/04/19 15:24:39;;;;;;;2.30;1.30;;;15.90;86.10;;;;;;4994950;28;20207;-73
2023/04/19 15:27:06;;;;;;;1.17;0.93;;;15.90;85.90;;;;;;4994935;28;20590;-72
2023/04/19 15:29:32;;;;;;;2.20;1.00;;;15.80;85.60;;;;;;4995124;28;20213;-74
2023/04/19 15:31:59;;;;;;;1.43;1.00;;;15.70;84.50;;;;;;4994326;28;20243;-73
2023/04/19 15:34:26;;;;;;;1.13;0.90;;;15.60;84.70;;;;;;4994965;28;20679;-74
2023/04/19 15:36:56;;;;;;;4.67;1.03;;;15.50;85.10;;;;;;4994786;28;20226;-73
2023/04/19 15:39:22;;;;;;;0.93;0.70;;;15.70;86.60;;;;;;4994635;28;20198;-73
2023/04/19 15:41:49;;;;;;;1.60;1.00;;;15.70;85.70;;;;;;4994658;28;20211;-74
2023/04/19 15:44:16;;;;;;;2.13;1.10;;;15.50;85.00;;;;;;4994455;28;20674;-74
2023/04/19 15:46:43;;;;;;;4.10;1.20;;;15.50;86.80;;;;;;4994285;28;20212;-73
2023/04/19 15:49:10;;;;;;;4.43;1.00;;;15.50;85.50;;;;;;4994716;28;20212;-73
2023/04/19 15:51:37;;;;;;;1.70;1.10;;;15.40;84.60;;;;;;4994406;28;20325;-74
2023/04/19 15:54:05;;;;;;;2.03;1.00;;;15.30;84.40;;;;;;4994664;28;20210;-73
2023/04/19 15:56:32;;;;;;;3.17;1.20;;;15.20;84.10;;;;;;4994342;28;20208;-73
2023/04/19 15:58:59;;;;;;;1.40;1.07;;;15.30;85.20;;;;;;4994484;28;20293;-73
2023/04/19 16:01:26;;;;;;;1.77;1.10;;;15.30;85.70;;;;;;4994402;28;20210;-73
2023/04/19 16:03:53;;;;;;;3.47;1.10;;;15.40;85.40;;;;;;4994644;28;20293;-74
2023/04/19 16:06:20;;;;;;;2.13;1.10;;;15.40;84.70;;;;;;4994419;28;20214;-74
2023/04/19 16:08:47;;;;;;;1.37;1.00;;;15.30;84.10;;;;;;4994202;28;20226;-76
2023/04/19 16:11:15;;;;;;;2.13;1.00;;;15.30;84.80;;;;;;4994132;28;20659;-76
2023/04/19 16:13:42;;;;;;;4.27;1.17;;;15.40;85.30;;;;;;4994151;28;20693;-76
2023/04/19 16:16:09;;;;;;;1.10;0.87;;;15.40;84.10;;;;;;4994263;28;20212;-76
2023/04/19 16:18:35;;;;;;;2.37;1.30;;;15.30;83.10;;;;;;4994133;28;20345;-73
2023/04/19 16:21:03;;;;;;;2.00;1.10;;;15.40;81.80;;;;;;4994015;28;20221;-73
2023/04/19 16:23:30;;;;;;;1.77;0.97;;;15.10;82.40;;;;;;4994088;28;20210;-73
2023/04/19 16:25:57;;;;;;;1.80;0.90;;;15.00;83.80;;;;;;4993807;28;20202;-73
2023/04/19 16:28:25;;;;;;;2.73;1.00;;;15.00;83.20;;;;;;4993566;28;20230;-73
2023/04/19 16:30:52;;;;;;;2.03;0.87;;;15.00;82.90;;;;;;4993816;28;20210;-76
2023/04/19 16:33:19;;;;;;;2.20;0.97;;;15.00;83.90;;;;;;4993454;28;20725;-77
2023/04/19 16:35:46;;;;;;;1.70;1.20;;;14.90;84.70;;;;;;4993807;28;20571;-76
2023/04/19 16:38:13;;;;;;;2.27;1.30;;;14.90;85.80;;;;;;4993542;28;20234;-77
2023/04/19 16:40:39;;;;;;;2.30;1.30;;;14.80;85.30;;;;;;4993769;28;20211;-76
2023/04/19 16:43:06;;;;;;;2.37;1.00;;;14.90;85.60;;;;;;4993455;28;20215;-77
2023/04/19 16:45:34;;;;;;;2.10;1.13;;;14.80;85.40;;;;;;4993810;28;20210;-76
2023/04/19 16:48:01;;;;;;;1.87;1.27;;;14.80;87.00;;;;;;4993175;28;20234;-76
2023/04/19 16:50:28;;;;;;;2.50;1.50;;;14.80;85.80;;;;;;4993469;28;20288;-76
2023/04/19 16:52:55;;;;;;;2.13;1.20;;;14.70;85.40;;;;;;4993418;28;20236;-76
2023/04/19 16:55:21;;;;;;;1.50;1.00;;;14.70;84.90;;;;;;4993573;28;20210;-76
2023/04/19 16:57:49;;;;;;;1.40;1.13;;;14.60;85.10;;;;;;4993653;28;20277;-76
2023/04/19 17:00:17;;;;;;;1.50;1.10;;;14.60;86.40;;;;;;4993086;28;20209;-75
2023/04/19 17:02:45;;;;;;;1.40;0.90;;;14.50;85.20;;;;;;4993481;28;20213;-75
2023/04/19 17:05:12;;;;;;;3.60;1.30;;;14.60;85.00;;;;;;4993659;28;20207;-77
2023/04/19 17:07:39;;;;;;;2.47;1.30;;;14.60;86.70;;;;;;4993407;28;20257;-74
2023/04/19 17:10:07;;;;;;;5.50;1.40;;;14.60;87.00;;;;;;4993126;28;20206;-75
2023/04/19 17:12:34;;;;;;;1.73;1.20;;;14.50;86.40;;;;;;4993640;28;20237;-76
2023/04/19 17:15:00;;;;;;;1.93;1.37;;;14.50;86.10;;;;;;4993369;28;20209;-75
2023/04/19 17:17:27;;;;;;;2.13;1.40;;;14.40;86.60;;;;;;4993260;28;20229;-77
2023/04/19 17:19:56;;;;;;;2.73;1.33;;;14.30;86.40;;;;;;4993278;28;20237;-75
2023/04/19 17:22:23;;;;;;;1.70;1.20;;;14.30;87.50;;;;;;4992847;28;20202;-76
2023/04/19 17:24:50;;;;;;;3.07;1.57;;;14.30;88.30;;;;;;4993433;28;20377;-77
2023/04/19 17:27:16;;;;;;;2.50;1.57;;;14.20;87.40;;;;;;4993535;28;20234;-76
2023/04/19 17:29:43;;;;;;;2.10;1.20;;;14.20;87.00;;;;;;4993467;28;20210;-74
2023/04/19 17:32:10;;;;;;;2.13;1.30;;;14.10;87.80;;;;;;4993176;28;20226;-75
2023/04/19 17:34:37;;;;;;;2.37;1.40;;;14.10;88.10;;;;;;4993099;28;20213;-75
2023/04/19 17:37:05;;;;;;;2.30;1.40;;;14.00;88.20;;;;;;4993198;28;20230;-73
2023/04/19 17:39:32;;;;;;;2.60;1.50;;;14.00;88.10;;;;;;4993396;28;20210;-75
2023/04/19 17:41:58;;;;;;;3.23;1.40;;;13.90;88.10;;;;;;4993590;28;20210;-75
2023/04/19 17:44:25;;;;;;;2.90;1.30;;;13.90;89.20;;;;;;4993120;28;20214;-74
2023/04/19 17:46:52;;;;;;;1.50;1.27;;;13.80;89.90;;;;;;4993016;28;20238;-74
2023/04/19 17:49:20;;;;;;;2.47;1.67;;;13.80;90.10;;;;;;4993089;28;20243;-74
2023/04/19 17:51:47;;;;;;;1.30;1.20;;;13.70;90.30;;;;;;4993130;28;20213;-74
2023/04/19 17:54:16;;;;;;;3.27;1.80;;;13.80;90.40;;;;;;4993421;28;20202;-73
2023/04/19 17:56:42;;;;;;;2.80;1.30;;;13.70;90.60;;;;;;4996490;28;20567;-74
2023/04/19 17:59:09;;;;;;;2.27;1.37;;;13.60;90.80;;;;;;4996592;28;20214;-74
2023/04/19 18:01:36;;;;;;;1.97;1.50;;;13.60;90.80;;;;;;4996350;28;20213;-74
2023/04/19 18:04:04;;;;;;;4.40;1.70;;;13.50;91.00;;;;;;4996420;28;20233;-74
2023/04/19 18:06:31;;;;;;;2.97;1.20;;;13.50;91.10;;;;;;4996986;28;20230;-74
2023/04/19 18:08:58;;;;;;;2.60;1.80;;;13.40;91.00;;;;;;4996787;28;20261;-74
2023/04/19 18:11:26;;;;;;;2.67;1.40;;;13.40;91.70;;;;;;4996733;28;20202;-73
2023/04/19 18:13:53;;;;;;;2.53;1.70;;;13.30;91.30;;;;;;4996226;28;20234;-73
2023/04/19 18:16:20;;;;;;;2.17;1.50;;;13.40;91.80;;;;;;4995858;28;20660;-73
2023/04/19 18:18:47;;;;;;;3.63;1.70;;;13.20;92.00;;;;;;4996501;28;20655;-74